Terminal Aerodrome Forecast
Issued by NWS

Home | Current Version | Previous Version | Text Only | Print | Product List | Glossary On
Versions: 1 2 3 4 5 6 7 8 9 10 11 12 13 14 15
000
FTUS41 KPHI 231100
TAFPNE
TAF
KPNE 231139Z 2312/2412 30020G30KT P6SM FEW050 SCT200
     FM231500 31021G32KT P6SM SCT060
     FM240000 32015G25KT P6SM SKC
     FM240600 29017KT P6SM SKC=

USA.gov is the U.S. government's official web portal to all federal, state and local government web resources and services.